sensor_id;sensor_type;location;lat;lon;timestamp;P1;durP1;ratioP1;P2;durP2;ratioP2
68633;SDS011;55625;47.072;22.192;2023-03-14T00:02:06;1.88;;;0.95;;
68633;SDS011;55625;47.072;22.192;2023-03-14T00:04:33;2.03;;;0.20;;
68633;SDS011;55625;47.072;22.192;2023-03-14T00:06:59;3.17;;;1.17;;
68633;SDS011;55625;47.072;22.192;2023-03-14T00:09:25;3.50;;;1.67;;
68633;SDS011;55625;47.072;22.192;2023-03-14T00:11:52;8.18;;;3.08;;
68633;SDS011;55625;47.072;22.192;2023-03-14T00:14:18;11.90;;;4.30;;
68633;SDS011;55625;47.072;22.192;2023-03-14T00:16:47;6.05;;;3.13;;
68633;SDS011;55625;47.072;22.192;2023-03-14T00:19:13;4.77;;;2.37;;
68633;SDS011;55625;47.072;22.192;2023-03-14T00:21:39;21.23;;;6.68;;
68633;SDS011;55625;47.072;22.192;2023-03-14T00:24:05;6.22;;;4.47;;
68633;SDS011;55625;47.072;22.192;2023-03-14T00:26:31;7.33;;;4.40;;
68633;SDS011;55625;47.072;22.192;2023-03-14T00:28:57;7.63;;;4.07;;
68633;SDS011;55625;47.072;22.192;2023-03-14T00:31:23;5.53;;;2.35;;
68633;SDS011;55625;47.072;22.192;2023-03-14T00:33:51;12.43;;;6.30;;
68633;SDS011;55625;47.072;22.192;2023-03-14T00:36:18;22.35;;;8.00;;
68633;SDS011;55625;47.072;22.192;2023-03-14T00:38:46;9.18;;;3.90;;
68633;SDS011;55625;47.072;22.192;2023-03-14T00:41:15;7.63;;;3.70;;
68633;SDS011;55625;47.072;22.192;2023-03-14T00:43:47;27.10;;;11.82;;
68633;SDS011;55625;47.072;22.192;2023-03-14T00:46:14;24.53;;;11.57;;
68633;SDS011;55625;47.072;22.192;2023-03-14T00:48:40;21.92;;;7.10;;
68633;SDS011;55625;47.072;22.192;2023-03-14T00:51:07;36.47;;;16.85;;
68633;SDS011;55625;47.072;22.192;2023-03-14T00:53:37;20.25;;;10.43;;
68633;SDS011;55625;47.072;22.192;2023-03-14T00:56:08;8.70;;;5.67;;
68633;SDS011;55625;47.072;22.192;2023-03-14T00:58:35;11.52;;;4.80;;
68633;SDS011;55625;47.072;22.192;2023-03-14T01:01:08;4.95;;;3.53;;
68633;SDS011;55625;47.072;22.192;2023-03-14T01:03:39;6.80;;;2.45;;
68633;SDS011;55625;47.072;22.192;2023-03-14T01:06:24;10.45;;;4.82;;
68633;SDS011;55625;47.072;22.192;2023-03-14T01:08:53;13.77;;;7.07;;
68633;SDS011;55625;47.072;22.192;2023-03-14T01:11:24;12.20;;;8.07;;
68633;SDS011;55625;47.072;22.192;2023-03-14T01:13:56;7.90;;;2.75;;
68633;SDS011;55625;47.072;22.192;2023-03-14T01:16:24;9.18;;;3.90;;
68633;SDS011;55625;47.072;22.192;2023-03-14T01:18:52;14.85;;;6.00;;
68633;SDS011;55625;47.072;22.192;2023-03-14T01:21:19;14.57;;;6.00;;
68633;SDS011;55625;47.072;22.192;2023-03-14T01:23:50;11.40;;;5.53;;
68633;SDS011;55625;47.072;22.192;2023-03-14T01:26:19;6.85;;;3.92;;
68633;SDS011;55625;47.072;22.192;2023-03-14T01:28:48;7.70;;;3.15;;
68633;SDS011;55625;47.072;22.192;2023-03-14T01:31:15;6.70;;;2.97;;
68633;SDS011;55625;47.072;22.192;2023-03-14T01:33:43;3.10;;;1.40;;
68633;SDS011;55625;47.072;22.192;2023-03-14T01:36:10;5.20;;;2.83;;
68633;SDS011;55625;47.072;22.192;2023-03-14T01:38:37;10.30;;;5.00;;
68633;SDS011;55625;47.072;22.192;2023-03-14T01:41:05;8.63;;;3.78;;
68633;SDS011;55625;47.072;22.192;2023-03-14T01:43:33;13.45;;;6.07;;
68633;SDS011;55625;47.072;22.192;2023-03-14T01:48:48;5.53;;;3.03;;
68633;SDS011;55625;47.072;22.192;2023-03-14T01:51:30;14.00;;;5.82;;
68633;SDS011;55625;47.072;22.192;2023-03-14T01:57:16;18.27;;;8.48;;
68633;SDS011;55625;47.072;22.192;2023-03-14T02:00:09;6.17;;;3.93;;
68633;SDS011;55625;47.072;22.192;2023-03-14T02:02:49;4.57;;;2.83;;
68633;SDS011;55625;47.072;22.192;2023-03-14T02:05:28;9.43;;;2.63;;
68633;SDS011;55625;47.072;22.192;2023-03-14T02:07:59;2.95;;;1.90;;
68633;SDS011;55625;47.072;22.192;2023-03-14T02:10:28;21.80;;;2.13;;
68633;SDS011;55625;47.072;22.192;2023-03-14T02:13:00;4.10;;;2.40;;
68633;SDS011;55625;47.072;22.192;2023-03-14T02:15:29;2.38;;;1.13;;
68633;SDS011;55625;47.072;22.192;2023-03-14T02:17:57;2.88;;;0.55;;
68633;SDS011;55625;47.072;22.192;2023-03-14T02:22:59;2.78;;;2.17;;
68633;SDS011;55625;47.072;22.192;2023-03-14T02:28:31;3.72;;;0.75;;
68633;SDS011;55625;47.072;22.192;2023-03-14T02:30:56;3.33;;;1.83;;
68633;SDS011;55625;47.072;22.192;2023-03-14T02:33:22;3.57;;;2.07;;
68633;SDS011;55625;47.072;22.192;2023-03-14T02:35:58;4.90;;;1.42;;
68633;SDS011;55625;47.072;22.192;2023-03-14T02:41:11;4.47;;;2.45;;
68633;SDS011;55625;47.072;22.192;2023-03-14T02:43:37;18.08;;;2.63;;
68633;SDS011;55625;47.072;22.192;2023-03-14T02:46:03;5.43;;;3.00;;
68633;SDS011;55625;47.072;22.192;2023-03-14T02:48:35;4.07;;;2.05;;
68633;SDS011;55625;47.072;22.192;2023-03-14T02:51:10;4.95;;;2.47;;
68633;SDS011;55625;47.072;22.192;2023-03-14T02:53:37;4.25;;;1.33;;
68633;SDS011;55625;47.072;22.192;2023-03-14T02:56:03;6.97;;;2.95;;
68633;SDS011;55625;47.072;22.192;2023-03-14T02:58:30;2.73;;;0.90;;
68633;SDS011;55625;47.072;22.192;2023-03-14T03:00:56;5.15;;;1.33;;
68633;SDS011;55625;47.072;22.192;2023-03-14T03:03:22;7.60;;;1.90;;
68633;SDS011;55625;47.072;22.192;2023-03-14T03:05:49;6.07;;;2.00;;
68633;SDS011;55625;47.072;22.192;2023-03-14T03:08:17;4.10;;;1.83;;
68633;SDS011;55625;47.072;22.192;2023-03-14T03:10:44;4.28;;;1.40;;
68633;SDS011;55625;47.072;22.192;2023-03-14T03:13:10;3.20;;;0.73;;
68633;SDS011;55625;47.072;22.192;2023-03-14T03:15:36;2.95;;;1.55;;
68633;SDS011;55625;47.072;22.192;2023-03-14T03:18:02;2.43;;;1.00;;
68633;SDS011;55625;47.072;22.192;2023-03-14T03:20:28;1.67;;;1.08;;
68633;SDS011;55625;47.072;22.192;2023-03-14T03:22:54;3.55;;;1.50;;
68633;SDS011;55625;47.072;22.192;2023-03-14T03:25:20;4.45;;;1.77;;
68633;SDS011;55625;47.072;22.192;2023-03-14T03:27:46;2.53;;;1.27;;
68633;SDS011;55625;47.072;22.192;2023-03-14T03:30:12;1.65;;;0.85;;
68633;SDS011;55625;47.072;22.192;2023-03-14T03:32:39;20.45;;;2.22;;
68633;SDS011;55625;47.072;22.192;2023-03-14T03:35:05;1.52;;;0.80;;
68633;SDS011;55625;47.072;22.192;2023-03-14T03:37:32;1.67;;;0.93;;
68633;SDS011;55625;47.072;22.192;2023-03-14T03:39:59;5.30;;;1.53;;
68633;SDS011;55625;47.072;22.192;2023-03-14T03:42:28;2.58;;;1.30;;
68633;SDS011;55625;47.072;22.192;2023-03-14T03:44:54;2.75;;;0.95;;
68633;SDS011;55625;47.072;22.192;2023-03-14T03:47:20;4.32;;;1.85;;
68633;SDS011;55625;47.072;22.192;2023-03-14T03:49:46;2.77;;;1.17;;
68633;SDS011;55625;47.072;22.192;2023-03-14T03:52:12;2.20;;;1.08;;
68633;SDS011;55625;47.072;22.192;2023-03-14T03:54:38;2.22;;;0.85;;
68633;SDS011;55625;47.072;22.192;2023-03-14T03:57:04;3.87;;;1.07;;
68633;SDS011;55625;47.072;22.192;2023-03-14T03:59:29;3.05;;;1.35;;
68633;SDS011;55625;47.072;22.192;2023-03-14T04:01:55;5.10;;;1.65;;
68633;SDS011;55625;47.072;22.192;2023-03-14T04:04:21;5.93;;;0.83;;
68633;SDS011;55625;47.072;22.192;2023-03-14T04:06:47;5.57;;;1.30;;
68633;SDS011;55625;47.072;22.192;2023-03-14T04:09:13;2.13;;;1.07;;
68633;SDS011;55625;47.072;22.192;2023-03-14T04:11:39;2.07;;;1.37;;
68633;SDS011;55625;47.072;22.192;2023-03-14T04:14:06;4.15;;;1.38;;
68633;SDS011;55625;47.072;22.192;2023-03-14T04:16:32;2.35;;;1.05;;
68633;SDS011;55625;47.072;22.192;2023-03-14T04:18:58;5.28;;;1.83;;
68633;SDS011;55625;47.072;22.192;2023-03-14T04:21:25;3.95;;;1.08;;
68633;SDS011;55625;47.072;22.192;2023-03-14T04:23:51;6.57;;;1.50;;
68633;SDS011;55625;47.072;22.192;2023-03-14T04:26:17;5.93;;;1.85;;
68633;SDS011;55625;47.072;22.192;2023-03-14T04:28:43;4.90;;;1.63;;
68633;SDS011;55625;47.072;22.192;2023-03-14T04:31:10;1.95;;;0.70;;
68633;SDS011;55625;47.072;22.192;2023-03-14T04:33:43;2.07;;;1.07;;
68633;SDS011;55625;47.072;22.192;2023-03-14T04:36:10;2.00;;;0.65;;
68633;SDS011;55625;47.072;22.192;2023-03-14T04:38:36;10.70;;;2.08;;
68633;SDS011;55625;47.072;22.192;2023-03-14T04:41:02;2.47;;;1.25;;
68633;SDS011;55625;47.072;22.192;2023-03-14T04:43:29;3.63;;;1.37;;
68633;SDS011;55625;47.072;22.192;2023-03-14T04:45:56;5.40;;;2.97;;
68633;SDS011;55625;47.072;22.192;2023-03-14T04:48:23;6.30;;;5.38;;
68633;SDS011;55625;47.072;22.192;2023-03-14T04:50:51;10.55;;;9.35;;
68633;SDS011;55625;47.072;22.192;2023-03-14T04:53:17;11.65;;;8.73;;
68633;SDS011;55625;47.072;22.192;2023-03-14T04:55:47;13.27;;;11.03;;
68633;SDS011;55625;47.072;22.192;2023-03-14T04:58:18;8.90;;;4.22;;
68633;SDS011;55625;47.072;22.192;2023-03-14T05:00:45;5.78;;;2.45;;
68633;SDS011;55625;47.072;22.192;2023-03-14T05:03:11;5.68;;;1.98;;
68633;SDS011;55625;47.072;22.192;2023-03-14T05:05:42;6.65;;;3.35;;
68633;SDS011;55625;47.072;22.192;2023-03-14T05:08:09;4.20;;;2.27;;
68633;SDS011;55625;47.072;22.192;2023-03-14T05:10:35;6.53;;;3.47;;
68633;SDS011;55625;47.072;22.192;2023-03-14T05:13:01;9.55;;;4.75;;
68633;SDS011;55625;47.072;22.192;2023-03-14T05:15:27;7.45;;;4.88;;
68633;SDS011;55625;47.072;22.192;2023-03-14T05:17:53;9.53;;;5.37;;
68633;SDS011;55625;47.072;22.192;2023-03-14T05:20:19;6.75;;;3.53;;
68633;SDS011;55625;47.072;22.192;2023-03-14T05:22:46;7.10;;;3.42;;
68633;SDS011;55625;47.072;22.192;2023-03-14T05:25:12;10.25;;;4.03;;
68633;SDS011;55625;47.072;22.192;2023-03-14T05:27:38;5.20;;;2.03;;
68633;SDS011;55625;47.072;22.192;2023-03-14T05:30:04;21.85;;;4.10;;
68633;SDS011;55625;47.072;22.192;2023-03-14T05:32:31;17.35;;;4.57;;
68633;SDS011;55625;47.072;22.192;2023-03-14T05:34:57;8.07;;;2.85;;
68633;SDS011;55625;47.072;22.192;2023-03-14T05:37:25;3.05;;;2.05;;
68633;SDS011;55625;47.072;22.192;2023-03-14T05:39:51;16.73;;;2.70;;
68633;SDS011;55625;47.072;22.192;2023-03-14T05:42:17;2.92;;;1.88;;
68633;SDS011;55625;47.072;22.192;2023-03-14T05:44:43;4.13;;;1.95;;
68633;SDS011;55625;47.072;22.192;2023-03-14T05:47:09;3.65;;;1.48;;
68633;SDS011;55625;47.072;22.192;2023-03-14T05:49:35;8.57;;;3.60;;
68633;SDS011;55625;47.072;22.192;2023-03-14T05:52:01;6.32;;;2.55;;
68633;SDS011;55625;47.072;22.192;2023-03-14T05:54:27;3.22;;;1.42;;
68633;SDS011;55625;47.072;22.192;2023-03-14T05:56:53;1.93;;;0.97;;
68633;SDS011;55625;47.072;22.192;2023-03-14T05:59:19;2.47;;;1.05;;
68633;SDS011;55625;47.072;22.192;2023-03-14T06:01:45;1.67;;;0.80;;
68633;SDS011;55625;47.072;22.192;2023-03-14T06:04:11;2.90;;;1.77;;
68633;SDS011;55625;47.072;22.192;2023-03-14T06:06:36;3.45;;;0.90;;
68633;SDS011;55625;47.072;22.192;2023-03-14T06:09:02;2.13;;;0.50;;
68633;SDS011;55625;47.072;22.192;2023-03-14T06:11:29;3.72;;;0.95;;
68633;SDS011;55625;47.072;22.192;2023-03-14T06:13:54;1.73;;;1.03;;
68633;SDS011;55625;47.072;22.192;2023-03-14T06:16:20;4.32;;;2.45;;
68633;SDS011;55625;47.072;22.192;2023-03-14T06:18:46;5.63;;;3.13;;
68633;SDS011;55625;47.072;22.192;2023-03-14T06:21:13;7.57;;;3.10;;
68633;SDS011;55625;47.072;22.192;2023-03-14T06:23:40;6.85;;;4.28;;
68633;SDS011;55625;47.072;22.192;2023-03-14T06:26:06;4.95;;;2.83;;
68633;SDS011;55625;47.072;22.192;2023-03-14T06:28:32;4.53;;;2.90;;
68633;SDS011;55625;47.072;22.192;2023-03-14T06:30:58;7.53;;;2.47;;
68633;SDS011;55625;47.072;22.192;2023-03-14T06:33:25;9.07;;;4.47;;
68633;SDS011;55625;47.072;22.192;2023-03-14T06:35:51;5.18;;;3.90;;
68633;SDS011;55625;47.072;22.192;2023-03-14T06:38:16;10.97;;;4.00;;
68633;SDS011;55625;47.072;22.192;2023-03-14T06:40:42;4.60;;;3.17;;
68633;SDS011;55625;47.072;22.192;2023-03-14T06:43:08;6.53;;;3.03;;
68633;SDS011;55625;47.072;22.192;2023-03-14T06:45:34;6.03;;;2.20;;
68633;SDS011;55625;47.072;22.192;2023-03-14T06:48:00;3.70;;;1.85;;
68633;SDS011;55625;47.072;22.192;2023-03-14T06:50:26;3.97;;;2.03;;
68633;SDS011;55625;47.072;22.192;2023-03-14T06:52:52;4.22;;;1.75;;
68633;SDS011;55625;47.072;22.192;2023-03-14T06:55:18;2.67;;;1.53;;
68633;SDS011;55625;47.072;22.192;2023-03-14T06:57:44;1.88;;;0.77;;
68633;SDS011;55625;47.072;22.192;2023-03-14T07:00:10;1.95;;;0.70;;
68633;SDS011;55625;47.072;22.192;2023-03-14T07:02:38;1.70;;;0.57;;
68633;SDS011;55625;47.072;22.192;2023-03-14T07:05:04;1.15;;;0.63;;
68633;SDS011;55625;47.072;22.192;2023-03-14T07:07:31;3.43;;;0.67;;
68633;SDS011;55625;47.072;22.192;2023-03-14T07:09:57;1.90;;;0.95;;
68633;SDS011;55625;47.072;22.192;2023-03-14T07:12:23;1.33;;;0.68;;
68633;SDS011;55625;47.072;22.192;2023-03-14T07:14:49;1.47;;;0.60;;
68633;SDS011;55625;47.072;22.192;2023-03-14T07:17:14;1.73;;;0.68;;
68633;SDS011;55625;47.072;22.192;2023-03-14T07:19:40;2.30;;;0.90;;
68633;SDS011;55625;47.072;22.192;2023-03-14T07:22:06;1.00;;;0.20;;
68633;SDS011;55625;47.072;22.192;2023-03-14T07:24:32;1.57;;;0.80;;
68633;SDS011;55625;47.072;22.192;2023-03-14T07:26:58;2.65;;;0.82;;
68633;SDS011;55625;47.072;22.192;2023-03-14T07:29:24;2.55;;;1.52;;
68633;SDS011;55625;47.072;22.192;2023-03-14T07:31:50;1.73;;;0.77;;
68633;SDS011;55625;47.072;22.192;2023-03-14T07:34:15;2.10;;;0.50;;
68633;SDS011;55625;47.072;22.192;2023-03-14T07:36:41;2.67;;;0.40;;
68633;SDS011;55625;47.072;22.192;2023-03-14T07:39:07;2.08;;;0.57;;
68633;SDS011;55625;47.072;22.192;2023-03-14T07:41:34;1.25;;;0.73;;
68633;SDS011;55625;47.072;22.192;2023-03-14T07:44:00;1.65;;;0.60;;
68633;SDS011;55625;47.072;22.192;2023-03-14T07:46:26;1.60;;;0.47;;
68633;SDS011;55625;47.072;22.192;2023-03-14T07:48:51;2.88;;;0.63;;
68633;SDS011;55625;47.072;22.192;2023-03-14T07:51:17;3.65;;;0.85;;
68633;SDS011;55625;47.072;22.192;2023-03-14T07:53:43;1.30;;;0.57;;
68633;SDS011;55625;47.072;22.192;2023-03-14T07:56:09;1.45;;;0.95;;
68633;SDS011;55625;47.072;22.192;2023-03-14T07:58:35;3.42;;;0.85;;
68633;SDS011;55625;47.072;22.192;2023-03-14T08:01:01;1.73;;;0.60;;
68633;SDS011;55625;47.072;22.192;2023-03-14T08:03:26;3.13;;;0.88;;
68633;SDS011;55625;47.072;22.192;2023-03-14T08:05:52;2.45;;;1.42;;
68633;SDS011;55625;47.072;22.192;2023-03-14T08:08:18;2.87;;;0.33;;
68633;SDS011;55625;47.072;22.192;2023-03-14T08:10:44;4.30;;;0.73;;
68633;SDS011;55625;47.072;22.192;2023-03-14T08:13:11;1.73;;;0.30;;
68633;SDS011;55625;47.072;22.192;2023-03-14T08:15:37;3.53;;;1.38;;
68633;SDS011;55625;47.072;22.192;2023-03-14T08:18:03;3.23;;;1.20;;
68633;SDS011;55625;47.072;22.192;2023-03-14T08:20:30;2.25;;;1.13;;
68633;SDS011;55625;47.072;22.192;2023-03-14T08:22:57;2.55;;;1.08;;
68633;SDS011;55625;47.072;22.192;2023-03-14T08:25:26;2.33;;;0.57;;
68633;SDS011;55625;47.072;22.192;2023-03-14T08:27:53;5.18;;;2.22;;
68633;SDS011;55625;47.072;22.192;2023-03-14T08:30:20;2.33;;;0.93;;
68633;SDS011;55625;47.072;22.192;2023-03-14T08:32:47;3.58;;;1.38;;
68633;SDS011;55625;47.072;22.192;2023-03-14T08:35:14;2.60;;;1.00;;
68633;SDS011;55625;47.072;22.192;2023-03-14T08:37:40;1.70;;;0.50;;
68633;SDS011;55625;47.072;22.192;2023-03-14T08:40:06;1.50;;;0.60;;
68633;SDS011;55625;47.072;22.192;2023-03-14T08:42:35;2.33;;;0.85;;
68633;SDS011;55625;47.072;22.192;2023-03-14T08:45:02;1.42;;;0.32;;
68633;SDS011;55625;47.072;22.192;2023-03-14T08:47:29;2.17;;;0.63;;
68633;SDS011;55625;47.072;22.192;2023-03-14T08:49:55;7.90;;;0.50;;
68633;SDS011;55625;47.072;22.192;2023-03-14T08:52:21;1.43;;;0.43;;
68633;SDS011;55625;47.072;22.192;2023-03-14T08:54:47;0.98;;;0.30;;
68633;SDS011;55625;47.072;22.192;2023-03-14T08:57:13;2.42;;;0.95;;
68633;SDS011;55625;47.072;22.192;2023-03-14T08:59:39;2.30;;;0.57;;
68633;SDS011;55625;47.072;22.192;2023-03-14T09:02:05;2.80;;;0.60;;
68633;SDS011;55625;47.072;22.192;2023-03-14T09:04:35;2.07;;;0.63;;
68633;SDS011;55625;47.072;22.192;2023-03-14T09:07:01;1.92;;;0.80;;
68633;SDS011;55625;47.072;22.192;2023-03-14T09:09:28;2.67;;;0.73;;
68633;SDS011;55625;47.072;22.192;2023-03-14T09:11:55;1.45;;;0.55;;
68633;SDS011;55625;47.072;22.192;2023-03-14T09:14:22;4.78;;;1.00;;
68633;SDS011;55625;47.072;22.192;2023-03-14T09:16:48;2.57;;;1.20;;
68633;SDS011;55625;47.072;22.192;2023-03-14T09:19:15;2.55;;;0.75;;
68633;SDS011;55625;47.072;22.192;2023-03-14T09:21:41;6.32;;;1.75;;
68633;SDS011;55625;47.072;22.192;2023-03-14T09:24:07;13.15;;;4.38;;
68633;SDS011;55625;47.072;22.192;2023-03-14T09:26:33;2.33;;;0.93;;
68633;SDS011;55625;47.072;22.192;2023-03-14T09:28:59;1.67;;;0.70;;
68633;SDS011;55625;47.072;22.192;2023-03-14T09:31:25;1.27;;;0.40;;
68633;SDS011;55625;47.072;22.192;2023-03-14T09:33:52;1.98;;;0.98;;
68633;SDS011;55625;47.072;22.192;2023-03-14T09:36:18;3.63;;;0.80;;
68633;SDS011;55625;47.072;22.192;2023-03-14T09:38:44;3.10;;;0.70;;
68633;SDS011;55625;47.072;22.192;2023-03-14T09:41:14;1.50;;;0.73;;
68633;SDS011;55625;47.072;22.192;2023-03-14T09:43:46;1.80;;;0.80;;
68633;SDS011;55625;47.072;22.192;2023-03-14T09:46:16;1.90;;;0.87;;
68633;SDS011;55625;47.072;22.192;2023-03-14T09:48:42;2.70;;;1.17;;
68633;SDS011;55625;47.072;22.192;2023-03-14T09:51:16;3.55;;;1.17;;
68633;SDS011;55625;47.072;22.192;2023-03-14T09:53:47;1.83;;;0.73;;
68633;SDS011;55625;47.072;22.192;2023-03-14T09:56:25;1.80;;;1.08;;
68633;SDS011;55625;47.072;22.192;2023-03-14T09:58:57;1.50;;;0.73;;
68633;SDS011;55625;47.072;22.192;2023-03-14T10:01:30;2.63;;;0.55;;
68633;SDS011;55625;47.072;22.192;2023-03-14T10:04:02;3.40;;;0.52;;
68633;SDS011;55625;47.072;22.192;2023-03-14T10:06:39;1.70;;;1.00;;
68633;SDS011;55625;47.072;22.192;2023-03-14T10:09:05;1.63;;;0.83;;
68633;SDS011;55625;47.072;22.192;2023-03-14T10:11:33;1.58;;;0.43;;
68633;SDS011;55625;47.072;22.192;2023-03-14T10:14:11;2.03;;;0.60;;
68633;SDS011;55625;47.072;22.192;2023-03-14T10:16:45;1.60;;;0.60;;
68633;SDS011;55625;47.072;22.192;2023-03-14T10:19:12;1.30;;;0.50;;
68633;SDS011;55625;47.072;22.192;2023-03-14T10:21:41;2.70;;;0.50;;
68633;SDS011;55625;47.072;22.192;2023-03-14T10:26:54;1.45;;;0.63;;
68633;SDS011;55625;47.072;22.192;2023-03-14T10:29:27;2.10;;;0.77;;
68633;SDS011;55625;47.072;22.192;2023-03-14T10:32:00;2.13;;;0.40;;
68633;SDS011;55625;47.072;22.192;2023-03-14T10:34:33;2.17;;;0.80;;
68633;SDS011;55625;47.072;22.192;2023-03-14T10:37:16;2.38;;;1.45;;
68633;SDS011;55625;47.072;22.192;2023-03-14T10:39:48;1.75;;;0.65;;
68633;SDS011;55625;47.072;22.192;2023-03-14T10:45:00;3.67;;;0.97;;
68633;SDS011;55625;47.072;22.192;2023-03-14T10:47:32;2.95;;;0.60;;
68633;SDS011;55625;47.072;22.192;2023-03-14T10:50:21;1.38;;;0.63;;
68633;SDS011;55625;47.072;22.192;2023-03-14T10:52:56;6.10;;;2.80;;
68633;SDS011;55625;47.072;22.192;2023-03-14T10:55:25;13.77;;;5.65;;
68633;SDS011;55625;47.072;22.192;2023-03-14T10:57:51;15.07;;;6.23;;
68633;SDS011;55625;47.072;22.192;2023-03-14T11:00:22;3.85;;;1.55;;
68633;SDS011;55625;47.072;22.192;2023-03-14T11:03:07;3.90;;;0.98;;
68633;SDS011;55625;47.072;22.192;2023-03-14T11:05:46;1.33;;;0.57;;
68633;SDS011;55625;47.072;22.192;2023-03-14T11:08:23;2.50;;;1.63;;
68633;SDS011;55625;47.072;22.192;2023-03-14T11:11:43;1.90;;;0.73;;
68633;SDS011;55625;47.072;22.192;2023-03-14T11:14:12;1.65;;;0.38;;
68633;SDS011;55625;47.072;22.192;2023-03-14T11:22:47;1.60;;;0.40;;
68633;SDS011;55625;47.072;22.192;2023-03-14T11:25:35;3.13;;;1.03;;
68633;SDS011;55625;47.072;22.192;2023-03-14T11:28:22;1.80;;;0.57;;
68633;SDS011;55625;47.072;22.192;2023-03-14T11:34:06;1.55;;;0.55;;
68633;SDS011;55625;47.072;22.192;2023-03-14T11:36:59;2.40;;;0.50;;
68633;SDS011;55625;47.072;22.192;2023-03-14T11:39:38;1.30;;;0.40;;
68633;SDS011;55625;47.072;22.192;2023-03-14T11:42:12;2.00;;;0.60;;
68633;SDS011;55625;47.072;22.192;2023-03-14T11:44:41;1.73;;;0.65;;
68633;SDS011;55625;47.072;22.192;2023-03-14T11:47:13;1.88;;;0.55;;
68633;SDS011;55625;47.072;22.192;2023-03-14T11:49:57;2.28;;;0.65;;
68633;SDS011;55625;47.072;22.192;2023-03-14T11:52:41;1.37;;;0.60;;
68633;SDS011;55625;47.072;22.192;2023-03-14T12:01:16;1.38;;;0.60;;
68633;SDS011;55625;47.072;22.192;2023-03-14T12:03:51;2.15;;;0.73;;
68633;SDS011;55625;47.072;22.192;2023-03-14T12:09:08;1.83;;;0.63;;
68633;SDS011;55625;47.072;22.192;2023-03-14T12:11:38;2.42;;;0.75;;
68633;SDS011;55625;47.072;22.192;2023-03-14T12:14:17;2.85;;;1.30;;
68633;SDS011;55625;47.072;22.192;2023-03-14T12:20:25;3.27;;;1.37;;
68633;SDS011;55625;47.072;22.192;2023-03-14T12:25:23;1.80;;;0.47;;
68633;SDS011;55625;47.072;22.192;2023-03-14T12:30:34;1.98;;;1.15;;
68633;SDS011;55625;47.072;22.192;2023-03-14T12:35:43;1.20;;;0.40;;
68633;SDS011;55625;47.072;22.192;2023-03-14T12:43:45;2.00;;;1.20;;
68633;SDS011;55625;47.072;22.192;2023-03-14T12:51:40;1.33;;;0.75;;
68633;SDS011;55625;47.072;22.192;2023-03-14T12:59:58;1.30;;;0.50;;
68633;SDS011;55625;47.072;22.192;2023-03-14T13:02:29;2.58;;;0.93;;
68633;SDS011;55625;47.072;22.192;2023-03-14T13:05:10;1.50;;;0.75;;
68633;SDS011;55625;47.072;22.192;2023-03-14T13:13:01;1.77;;;0.73;;
68633;SDS011;55625;47.072;22.192;2023-03-14T13:15:45;1.80;;;0.47;;
68633;SDS011;55625;47.072;22.192;2023-03-14T13:18:35;2.78;;;0.50;;
68633;SDS011;55625;47.072;22.192;2023-03-14T13:21:26;1.20;;;0.70;;
68633;SDS011;55625;47.072;22.192;2023-03-14T13:26:37;1.92;;;1.15;;
68633;SDS011;55625;47.072;22.192;2023-03-14T13:29:19;1.20;;;0.52;;
68633;SDS011;55625;47.072;22.192;2023-03-14T13:31:49;3.35;;;1.50;;
68633;SDS011;55625;47.072;22.192;2023-03-14T13:34:17;2.60;;;1.30;;
68633;SDS011;55625;47.072;22.192;2023-03-14T13:36:43;1.20;;;0.50;;
68633;SDS011;55625;47.072;22.192;2023-03-14T13:39:10;2.38;;;1.25;;
68633;SDS011;55625;47.072;22.192;2023-03-14T13:41:41;1.67;;;0.52;;
68633;SDS011;55625;47.072;22.192;2023-03-14T13:44:18;1.65;;;0.75;;
68633;SDS011;55625;47.072;22.192;2023-03-14T13:47:05;1.40;;;0.80;;
68633;SDS011;55625;47.072;22.192;2023-03-14T13:49:43;1.92;;;0.70;;
68633;SDS011;55625;47.072;22.192;2023-03-14T13:54:57;1.92;;;0.60;;
68633;SDS011;55625;47.072;22.192;2023-03-14T13:57:26;1.50;;;0.75;;
68633;SDS011;55625;47.072;22.192;2023-03-14T13:59:59;2.30;;;0.77;;
68633;SDS011;55625;47.072;22.192;2023-03-14T14:02:31;2.00;;;0.52;;
68633;SDS011;55625;47.072;22.192;2023-03-14T14:05:01;2.03;;;0.70;;
68633;SDS011;55625;47.072;22.192;2023-03-14T14:07:28;1.40;;;0.57;;
68633;SDS011;55625;47.072;22.192;2023-03-14T14:09:54;1.75;;;0.88;;
68633;SDS011;55625;47.072;22.192;2023-03-14T14:12:28;1.97;;;0.53;;
68633;SDS011;55625;47.072;22.192;2023-03-14T14:15:05;1.55;;;0.73;;
68633;SDS011;55625;47.072;22.192;2023-03-14T14:17:37;2.40;;;0.52;;
68633;SDS011;55625;47.072;22.192;2023-03-14T14:20:11;2.38;;;1.05;;
68633;SDS011;55625;47.072;22.192;2023-03-14T14:23:32;2.85;;;1.00;;
68633;SDS011;55625;47.072;22.192;2023-03-14T14:25:54;3.53;;;1.20;;
68633;SDS011;55625;47.072;22.192;2023-03-14T14:31:16;2.15;;;0.77;;
68633;SDS011;55625;47.072;22.192;2023-03-14T14:33:57;5.30;;;1.33;;
68633;SDS011;55625;47.072;22.192;2023-03-14T14:38:58;4.67;;;1.03;;
68633;SDS011;55625;47.072;22.192;2023-03-14T14:41:31;2.22;;;1.20;;
68633;SDS011;55625;47.072;22.192;2023-03-14T14:44:00;1.55;;;0.65;;
68633;SDS011;55625;47.072;22.192;2023-03-14T14:46:30;2.20;;;0.65;;
68633;SDS011;55625;47.072;22.192;2023-03-14T14:49:19;1.67;;;0.70;;
68633;SDS011;55625;47.072;22.192;2023-03-14T14:51:49;2.17;;;0.87;;
68633;SDS011;55625;47.072;22.192;2023-03-14T14:54:17;1.80;;;0.60;;
68633;SDS011;55625;47.072;22.192;2023-03-14T14:57:01;2.35;;;1.10;;
68633;SDS011;55625;47.072;22.192;2023-03-14T14:59:29;2.17;;;0.70;;
68633;SDS011;55625;47.072;22.192;2023-03-14T15:01:56;2.20;;;1.20;;
68633;SDS011;55625;47.072;22.192;2023-03-14T15:04:24;2.20;;;0.93;;
68633;SDS011;55625;47.072;22.192;2023-03-14T15:06:51;2.90;;;1.25;;
68633;SDS011;55625;47.072;22.192;2023-03-14T15:09:18;1.52;;;0.75;;
68633;SDS011;55625;47.072;22.192;2023-03-14T15:11:45;1.58;;;0.70;;
68633;SDS011;55625;47.072;22.192;2023-03-14T15:14:12;4.10;;;0.80;;
68633;SDS011;55625;47.072;22.192;2023-03-14T15:16:38;1.70;;;0.50;;
68633;SDS011;55625;47.072;22.192;2023-03-14T15:19:12;2.10;;;0.60;;
68633;SDS011;55625;47.072;22.192;2023-03-14T15:21:49;2.33;;;0.93;;
68633;SDS011;55625;47.072;22.192;2023-03-14T15:24:19;2.13;;;0.50;;
68633;SDS011;55625;47.072;22.192;2023-03-14T15:26:45;2.10;;;0.87;;
68633;SDS011;55625;47.072;22.192;2023-03-14T15:29:11;3.25;;;1.27;;
68633;SDS011;55625;47.072;22.192;2023-03-14T15:31:38;2.83;;;1.20;;
68633;SDS011;55625;47.072;22.192;2023-03-14T15:34:05;2.47;;;0.93;;
68633;SDS011;55625;47.072;22.192;2023-03-14T15:36:32;2.37;;;1.20;;
68633;SDS011;55625;47.072;22.192;2023-03-14T15:39:00;10.52;;;6.38;;
68633;SDS011;55625;47.072;22.192;2023-03-14T15:41:27;7.22;;;3.35;;
68633;SDS011;55625;47.072;22.192;2023-03-14T15:43:53;2.10;;;0.63;;
68633;SDS011;55625;47.072;22.192;2023-03-14T15:46:20;2.53;;;1.43;;
68633;SDS011;55625;47.072;22.192;2023-03-14T15:48:47;3.33;;;1.40;;
68633;SDS011;55625;47.072;22.192;2023-03-14T15:51:14;2.15;;;1.10;;
68633;SDS011;55625;47.072;22.192;2023-03-14T15:53:40;2.85;;;1.83;;
68633;SDS011;55625;47.072;22.192;2023-03-14T15:56:11;8.73;;;4.60;;
68633;SDS011;55625;47.072;22.192;2023-03-14T15:58:42;14.40;;;8.43;;
68633;SDS011;55625;47.072;22.192;2023-03-14T16:01:11;17.45;;;8.75;;
68633;SDS011;55625;47.072;22.192;2023-03-14T16:03:42;14.63;;;7.93;;
68633;SDS011;55625;47.072;22.192;2023-03-14T16:06:10;11.18;;;6.10;;
68633;SDS011;55625;47.072;22.192;2023-03-14T16:08:36;22.38;;;7.60;;